Terminal Aerodrome Forecast
Issued by NWS

Home | Current Version | Previous Version | Text Only | Print | Product List | Glossary On
Versions: 1 2 3 4 5 6 7 8 9 10 11 12 13 14 15
000
FTUS46 KMTR 080606 RRA
TAFSNS
TAF
KSNS 080606Z 0806/0906 12012G18KT P6SM SCT025 BKN040 OVC060
     FM080800 12024G30KT P6SM -RA SCT025 BKN030 OVC050
     FM081500 12020KT 5SM -RA BR OVC015
     FM082000 12015KT 5SM -RA BR OVC010
     FM090300 11008KT P6SM VCSH BKN020=

USA.gov is the U.S. government's official web portal to all federal, state and local government web resources and services.